sensor_id;sensor_type;location;lat;lon;timestamp;P1;durP1;ratioP1;P2;durP2;ratioP2
41436;SDS011;27178;49.460;10.850;2023-07-31T00:01:07;1.90;;;1.55;;
41436;SDS011;27178;49.460;10.850;2023-07-31T00:03:35;2.58;;;1.30;;
41436;SDS011;27178;49.460;10.850;2023-07-31T00:06:03;3.30;;;1.83;;
41436;SDS011;27178;49.460;10.850;2023-07-31T00:08:31;2.72;;;1.70;;
41436;SDS011;27178;49.460;10.850;2023-07-31T00:11:00;5.00;;;1.85;;
41436;SDS011;27178;49.460;10.850;2023-07-31T00:13:28;3.53;;;1.83;;
41436;SDS011;27178;49.460;10.850;2023-07-31T00:15:57;5.70;;;1.65;;
41436;SDS011;27178;49.460;10.850;2023-07-31T00:18:25;3.72;;;1.50;;
41436;SDS011;27178;49.460;10.850;2023-07-31T00:20:53;1.48;;;1.33;;
41436;SDS011;27178;49.460;10.850;2023-07-31T00:23:22;2.90;;;1.40;;
41436;SDS011;27178;49.460;10.850;2023-07-31T00:25:50;1.88;;;1.50;;
41436;SDS011;27178;49.460;10.850;2023-07-31T00:28:18;3.65;;;1.70;;
41436;SDS011;27178;49.460;10.850;2023-07-31T00:30:46;2.85;;;1.65;;
41436;SDS011;27178;49.460;10.850;2023-07-31T00:33:15;2.80;;;1.40;;
41436;SDS011;27178;49.460;10.850;2023-07-31T00:35:43;2.05;;;1.20;;
41436;SDS011;27178;49.460;10.850;2023-07-31T00:38:11;4.35;;;1.60;;
41436;SDS011;27178;49.460;10.850;2023-07-31T00:40:39;3.38;;;1.40;;
41436;SDS011;27178;49.460;10.850;2023-07-31T00:43:08;3.55;;;1.40;;
41436;SDS011;27178;49.460;10.850;2023-07-31T00:45:36;3.05;;;1.80;;
41436;SDS011;27178;49.460;10.850;2023-07-31T00:48:04;3.08;;;1.60;;
41436;SDS011;27178;49.460;10.850;2023-07-31T00:53:04;3.45;;;1.50;;
41436;SDS011;27178;49.460;10.850;2023-07-31T00:55:33;4.35;;;1.45;;
41436;SDS011;27178;49.460;10.850;2023-07-31T00:58:01;2.67;;;1.63;;
41436;SDS011;27178;49.460;10.850;2023-07-31T01:00:29;3.70;;;1.65;;
41436;SDS011;27178;49.460;10.850;2023-07-31T01:02:57;2.33;;;1.65;;
41436;SDS011;27178;49.460;10.850;2023-07-31T01:05:29;1.92;;;1.58;;
41436;SDS011;27178;49.460;10.850;2023-07-31T01:08:09;2.83;;;1.42;;
41436;SDS011;27178;49.460;10.850;2023-07-31T01:10:46;2.35;;;1.48;;
41436;SDS011;27178;49.460;10.850;2023-07-31T01:13:20;3.30;;;1.40;;
41436;SDS011;27178;49.460;10.850;2023-07-31T01:15:49;2.17;;;1.40;;
41436;SDS011;27178;49.460;10.850;2023-07-31T01:18:17;3.90;;;1.38;;
41436;SDS011;27178;49.460;10.850;2023-07-31T01:20:44;1.33;;;1.23;;
41436;SDS011;27178;49.460;10.850;2023-07-31T01:23:35;2.25;;;1.30;;
41436;SDS011;27178;49.460;10.850;2023-07-31T01:26:20;2.85;;;1.40;;
41436;SDS011;27178;49.460;10.850;2023-07-31T01:28:56;1.92;;;1.33;;
41436;SDS011;27178;49.460;10.850;2023-07-31T01:31:29;1.67;;;1.48;;
41436;SDS011;27178;49.460;10.850;2023-07-31T01:33:59;3.72;;;1.80;;
41436;SDS011;27178;49.460;10.850;2023-07-31T01:36:29;2.22;;;1.80;;
41436;SDS011;27178;49.460;10.850;2023-07-31T01:38:58;1.92;;;1.38;;
41436;SDS011;27178;49.460;10.850;2023-07-31T01:41:28;3.63;;;1.30;;
41436;SDS011;27178;49.460;10.850;2023-07-31T01:43:57;3.42;;;1.60;;
41436;SDS011;27178;49.460;10.850;2023-07-31T01:46:25;2.42;;;1.75;;
41436;SDS011;27178;49.460;10.850;2023-07-31T01:48:53;3.88;;;1.50;;
41436;SDS011;27178;49.460;10.850;2023-07-31T01:51:21;2.15;;;1.30;;
41436;SDS011;27178;49.460;10.850;2023-07-31T01:53:50;2.10;;;1.58;;
41436;SDS011;27178;49.460;10.850;2023-07-31T01:56:18;3.47;;;1.60;;
41436;SDS011;27178;49.460;10.850;2023-07-31T01:58:48;2.22;;;1.40;;
41436;SDS011;27178;49.460;10.850;2023-07-31T02:01:16;2.53;;;1.58;;
41436;SDS011;27178;49.460;10.850;2023-07-31T02:03:44;2.28;;;1.70;;
41436;SDS011;27178;49.460;10.850;2023-07-31T02:06:13;3.08;;;1.77;;
41436;SDS011;27178;49.460;10.850;2023-07-31T02:08:41;1.40;;;1.23;;
41436;SDS011;27178;49.460;10.850;2023-07-31T02:11:09;1.55;;;1.23;;
41436;SDS011;27178;49.460;10.850;2023-07-31T02:13:37;1.38;;;1.27;;
41436;SDS011;27178;49.460;10.850;2023-07-31T02:16:07;3.58;;;1.33;;
41436;SDS011;27178;49.460;10.850;2023-07-31T02:18:35;2.15;;;1.30;;
41436;SDS011;27178;49.460;10.850;2023-07-31T02:21:03;1.98;;;1.60;;
41436;SDS011;27178;49.460;10.850;2023-07-31T02:23:31;3.88;;;1.50;;
41436;SDS011;27178;49.460;10.850;2023-07-31T02:26:01;3.50;;;1.70;;
41436;SDS011;27178;49.460;10.850;2023-07-31T02:28:29;2.80;;;1.40;;
41436;SDS011;27178;49.460;10.850;2023-07-31T02:30:58;3.17;;;1.38;;
41436;SDS011;27178;49.460;10.850;2023-07-31T02:33:28;2.60;;;1.30;;
41436;SDS011;27178;49.460;10.850;2023-07-31T02:35:56;4.13;;;1.67;;
41436;SDS011;27178;49.460;10.850;2023-07-31T02:38:25;1.67;;;1.58;;
41436;SDS011;27178;49.460;10.850;2023-07-31T02:40:53;2.03;;;1.30;;
41436;SDS011;27178;49.460;10.850;2023-07-31T02:43:21;2.17;;;1.33;;
41436;SDS011;27178;49.460;10.850;2023-07-31T02:45:50;3.70;;;1.60;;
41436;SDS011;27178;49.460;10.850;2023-07-31T02:48:19;2.35;;;1.40;;
41436;SDS011;27178;49.460;10.850;2023-07-31T02:50:48;1.55;;;1.45;;
41436;SDS011;27178;49.460;10.850;2023-07-31T02:53:16;3.17;;;1.63;;
41436;SDS011;27178;49.460;10.850;2023-07-31T02:55:44;2.35;;;1.38;;
41436;SDS011;27178;49.460;10.850;2023-07-31T02:58:12;1.50;;;1.10;;
41436;SDS011;27178;49.460;10.850;2023-07-31T03:00:41;2.90;;;1.42;;
41436;SDS011;27178;49.460;10.850;2023-07-31T03:03:10;2.28;;;1.45;;
41436;SDS011;27178;49.460;10.850;2023-07-31T03:05:38;1.80;;;1.45;;
41436;SDS011;27178;49.460;10.850;2023-07-31T03:08:07;2.80;;;1.55;;
41436;SDS011;27178;49.460;10.850;2023-07-31T03:10:35;2.92;;;1.27;;
41436;SDS011;27178;49.460;10.850;2023-07-31T03:13:04;1.60;;;1.50;;
41436;SDS011;27178;49.460;10.850;2023-07-31T03:15:32;1.88;;;1.40;;
41436;SDS011;27178;49.460;10.850;2023-07-31T03:18:00;5.40;;;1.70;;
41436;SDS011;27178;49.460;10.850;2023-07-31T03:20:29;4.43;;;1.88;;
41436;SDS011;27178;49.460;10.850;2023-07-31T03:22:57;2.95;;;1.40;;
41436;SDS011;27178;49.460;10.850;2023-07-31T03:25:27;3.13;;;1.42;;
41436;SDS011;27178;49.460;10.850;2023-07-31T03:27:55;4.15;;;1.83;;
41436;SDS011;27178;49.460;10.850;2023-07-31T03:30:23;2.30;;;1.73;;
41436;SDS011;27178;49.460;10.850;2023-07-31T03:32:51;1.45;;;1.35;;
41436;SDS011;27178;49.460;10.850;2023-07-31T03:35:19;2.50;;;1.88;;
41436;SDS011;27178;49.460;10.850;2023-07-31T03:37:47;4.15;;;1.70;;
41436;SDS011;27178;49.460;10.850;2023-07-31T03:40:16;2.17;;;1.42;;
41436;SDS011;27178;49.460;10.850;2023-07-31T03:42:45;2.58;;;1.80;;
41436;SDS011;27178;49.460;10.850;2023-07-31T03:45:13;2.08;;;1.30;;
41436;SDS011;27178;49.460;10.850;2023-07-31T03:47:42;2.35;;;1.83;;
41436;SDS011;27178;49.460;10.850;2023-07-31T03:50:10;4.68;;;1.67;;
41436;SDS011;27178;49.460;10.850;2023-07-31T03:52:38;4.72;;;1.80;;
41436;SDS011;27178;49.460;10.850;2023-07-31T03:55:07;1.55;;;1.38;;
41436;SDS011;27178;49.460;10.850;2023-07-31T03:57:35;3.53;;;1.27;;
41436;SDS011;27178;49.460;10.850;2023-07-31T04:00:06;2.90;;;1.45;;
41436;SDS011;27178;49.460;10.850;2023-07-31T04:02:35;2.58;;;1.63;;
41436;SDS011;27178;49.460;10.850;2023-07-31T04:05:03;3.00;;;1.45;;
41436;SDS011;27178;49.460;10.850;2023-07-31T04:07:31;3.03;;;1.30;;
41436;SDS011;27178;49.460;10.850;2023-07-31T04:10:00;3.08;;;1.50;;
41436;SDS011;27178;49.460;10.850;2023-07-31T04:12:28;4.85;;;1.65;;
41436;SDS011;27178;49.460;10.850;2023-07-31T04:14:56;2.60;;;1.50;;
41436;SDS011;27178;49.460;10.850;2023-07-31T04:17:26;2.40;;;1.55;;
41436;SDS011;27178;49.460;10.850;2023-07-31T04:19:54;2.05;;;1.38;;
41436;SDS011;27178;49.460;10.850;2023-07-31T04:22:22;2.00;;;1.60;;
41436;SDS011;27178;49.460;10.850;2023-07-31T04:24:50;3.20;;;1.52;;
41436;SDS011;27178;49.460;10.850;2023-07-31T04:27:18;2.05;;;1.60;;
41436;SDS011;27178;49.460;10.850;2023-07-31T04:29:46;2.40;;;1.60;;
41436;SDS011;27178;49.460;10.850;2023-07-31T04:32:14;2.38;;;1.50;;
41436;SDS011;27178;49.460;10.850;2023-07-31T04:34:44;3.58;;;1.60;;
41436;SDS011;27178;49.460;10.850;2023-07-31T04:37:12;2.30;;;1.45;;
41436;SDS011;27178;49.460;10.850;2023-07-31T04:39:42;4.40;;;1.73;;
41436;SDS011;27178;49.460;10.850;2023-07-31T04:42:10;3.22;;;1.65;;
41436;SDS011;27178;49.460;10.850;2023-07-31T04:44:39;3.78;;;1.55;;
41436;SDS011;27178;49.460;10.850;2023-07-31T04:47:07;2.88;;;1.77;;
41436;SDS011;27178;49.460;10.850;2023-07-31T04:49:35;2.47;;;1.27;;
41436;SDS011;27178;49.460;10.850;2023-07-31T04:52:04;2.70;;;1.50;;
41436;SDS011;27178;49.460;10.850;2023-07-31T04:54:33;2.78;;;1.65;;
41436;SDS011;27178;49.460;10.850;2023-07-31T04:57:01;3.08;;;1.60;;
41436;SDS011;27178;49.460;10.850;2023-07-31T04:59:34;3.13;;;1.60;;
41436;SDS011;27178;49.460;10.850;2023-07-31T05:02:03;3.47;;;1.90;;
41436;SDS011;27178;49.460;10.850;2023-07-31T05:04:32;2.15;;;1.45;;
41436;SDS011;27178;49.460;10.850;2023-07-31T05:07:00;1.92;;;1.70;;
41436;SDS011;27178;49.460;10.850;2023-07-31T05:09:29;4.25;;;1.50;;
41436;SDS011;27178;49.460;10.850;2023-07-31T05:11:58;2.70;;;1.77;;
41436;SDS011;27178;49.460;10.850;2023-07-31T05:14:26;3.03;;;1.73;;
41436;SDS011;27178;49.460;10.850;2023-07-31T05:16:54;2.38;;;1.23;;
41436;SDS011;27178;49.460;10.850;2023-07-31T05:19:22;3.25;;;1.80;;
41436;SDS011;27178;49.460;10.850;2023-07-31T05:21:51;3.55;;;1.40;;
41436;SDS011;27178;49.460;10.850;2023-07-31T05:24:19;2.25;;;1.42;;
41436;SDS011;27178;49.460;10.850;2023-07-31T05:26:48;3.72;;;1.73;;
41436;SDS011;27178;49.460;10.850;2023-07-31T05:29:16;2.17;;;1.50;;
41436;SDS011;27178;49.460;10.850;2023-07-31T05:31:46;3.00;;;1.75;;
41436;SDS011;27178;49.460;10.850;2023-07-31T05:34:14;2.42;;;1.58;;
41436;SDS011;27178;49.460;10.850;2023-07-31T05:36:42;6.07;;;1.75;;
41436;SDS011;27178;49.460;10.850;2023-07-31T05:39:10;2.60;;;1.73;;
41436;SDS011;27178;49.460;10.850;2023-07-31T05:41:39;2.60;;;1.60;;
41436;SDS011;27178;49.460;10.850;2023-07-31T05:44:08;2.35;;;1.50;;
41436;SDS011;27178;49.460;10.850;2023-07-31T05:46:36;3.25;;;1.55;;
41436;SDS011;27178;49.460;10.850;2023-07-31T05:49:06;2.42;;;1.85;;
41436;SDS011;27178;49.460;10.850;2023-07-31T05:51:35;3.55;;;1.70;;
41436;SDS011;27178;49.460;10.850;2023-07-31T05:54:03;2.40;;;1.48;;
41436;SDS011;27178;49.460;10.850;2023-07-31T05:56:32;2.67;;;1.67;;
41436;SDS011;27178;49.460;10.850;2023-07-31T05:59:02;3.03;;;1.70;;
41436;SDS011;27178;49.460;10.850;2023-07-31T06:01:33;1.85;;;1.55;;
41436;SDS011;27178;49.460;10.850;2023-07-31T06:04:02;1.58;;;1.48;;
41436;SDS011;27178;49.460;10.850;2023-07-31T06:06:31;2.00;;;1.42;;
41436;SDS011;27178;49.460;10.850;2023-07-31T06:08:59;2.63;;;1.63;;
41436;SDS011;27178;49.460;10.850;2023-07-31T06:11:27;2.50;;;1.67;;
41436;SDS011;27178;49.460;10.850;2023-07-31T06:13:55;2.80;;;1.80;;
41436;SDS011;27178;49.460;10.850;2023-07-31T06:16:23;2.67;;;1.67;;
41436;SDS011;27178;49.460;10.850;2023-07-31T06:18:55;1.63;;;1.40;;
41436;SDS011;27178;49.460;10.850;2023-07-31T06:21:23;2.45;;;1.48;;
41436;SDS011;27178;49.460;10.850;2023-07-31T06:23:51;2.00;;;1.58;;
41436;SDS011;27178;49.460;10.850;2023-07-31T06:26:20;3.30;;;1.55;;
41436;SDS011;27178;49.460;10.850;2023-07-31T06:28:48;2.08;;;1.55;;
41436;SDS011;27178;49.460;10.850;2023-07-31T06:31:16;3.15;;;1.80;;
41436;SDS011;27178;49.460;10.850;2023-07-31T06:33:49;3.08;;;1.83;;
41436;SDS011;27178;49.460;10.850;2023-07-31T06:36:20;3.50;;;2.15;;
41436;SDS011;27178;49.460;10.850;2023-07-31T06:38:49;1.98;;;1.67;;
41436;SDS011;27178;49.460;10.850;2023-07-31T06:41:17;4.63;;;2.15;;
41436;SDS011;27178;49.460;10.850;2023-07-31T06:43:46;1.83;;;1.70;;
41436;SDS011;27178;49.460;10.850;2023-07-31T06:46:13;2.53;;;1.73;;
41436;SDS011;27178;49.460;10.850;2023-07-31T06:48:42;2.42;;;1.80;;
41436;SDS011;27178;49.460;10.850;2023-07-31T06:51:10;4.35;;;2.10;;
41436;SDS011;27178;49.460;10.850;2023-07-31T06:53:39;3.75;;;1.85;;
41436;SDS011;27178;49.460;10.850;2023-07-31T06:56:07;3.95;;;2.00;;
41436;SDS011;27178;49.460;10.850;2023-07-31T06:58:36;2.88;;;1.50;;
41436;SDS011;27178;49.460;10.850;2023-07-31T07:01:04;3.83;;;2.20;;
41436;SDS011;27178;49.460;10.850;2023-07-31T07:03:33;4.25;;;1.95;;
41436;SDS011;27178;49.460;10.850;2023-07-31T07:06:00;3.25;;;1.67;;
41436;SDS011;27178;49.460;10.850;2023-07-31T07:08:29;4.93;;;1.83;;
41436;SDS011;27178;49.460;10.850;2023-07-31T07:10:58;4.07;;;2.17;;
41436;SDS011;27178;49.460;10.850;2023-07-31T07:13:26;2.83;;;1.83;;
41436;SDS011;27178;49.460;10.850;2023-07-31T07:15:54;3.80;;;1.90;;
41436;SDS011;27178;49.460;10.850;2023-07-31T07:18:23;3.38;;;2.17;;
41436;SDS011;27178;49.460;10.850;2023-07-31T07:20:51;2.65;;;2.10;;
41436;SDS011;27178;49.460;10.850;2023-07-31T07:23:20;4.55;;;2.03;;
41436;SDS011;27178;49.460;10.850;2023-07-31T07:25:48;2.47;;;1.73;;
41436;SDS011;27178;49.460;10.850;2023-07-31T07:28:19;4.75;;;2.05;;
41436;SDS011;27178;49.460;10.850;2023-07-31T07:30:50;3.35;;;2.00;;
41436;SDS011;27178;49.460;10.850;2023-07-31T07:33:19;3.65;;;1.92;;
41436;SDS011;27178;49.460;10.850;2023-07-31T07:35:48;2.72;;;1.75;;
41436;SDS011;27178;49.460;10.850;2023-07-31T07:38:16;7.15;;;2.35;;
41436;SDS011;27178;49.460;10.850;2023-07-31T07:40:45;2.63;;;2.08;;
41436;SDS011;27178;49.460;10.850;2023-07-31T07:43:16;2.20;;;1.98;;
41436;SDS011;27178;49.460;10.850;2023-07-31T07:45:45;3.65;;;2.08;;
41436;SDS011;27178;49.460;10.850;2023-07-31T07:48:14;4.90;;;2.35;;
41436;SDS011;27178;49.460;10.850;2023-07-31T07:50:43;4.07;;;2.30;;
41436;SDS011;27178;49.460;10.850;2023-07-31T07:53:11;3.38;;;2.20;;
41436;SDS011;27178;49.460;10.850;2023-07-31T07:55:40;2.05;;;1.85;;
41436;SDS011;27178;49.460;10.850;2023-07-31T07:58:08;5.15;;;2.30;;
41436;SDS011;27178;49.460;10.850;2023-07-31T08:00:37;4.70;;;2.08;;
41436;SDS011;27178;49.460;10.850;2023-07-31T08:03:06;2.33;;;1.70;;
41436;SDS011;27178;49.460;10.850;2023-07-31T08:05:34;2.28;;;1.90;;
41436;SDS011;27178;49.460;10.850;2023-07-31T08:08:02;3.33;;;1.80;;
41436;SDS011;27178;49.460;10.850;2023-07-31T08:10:30;2.92;;;2.63;;
41436;SDS011;27178;49.460;10.850;2023-07-31T08:12:58;2.08;;;1.80;;
41436;SDS011;27178;49.460;10.850;2023-07-31T08:15:26;2.65;;;2.03;;
41436;SDS011;27178;49.460;10.850;2023-07-31T08:17:56;4.13;;;1.77;;
41436;SDS011;27178;49.460;10.850;2023-07-31T08:20:26;4.95;;;1.90;;
41436;SDS011;27178;49.460;10.850;2023-07-31T08:22:54;5.05;;;2.40;;
41436;SDS011;27178;49.460;10.850;2023-07-31T08:25:23;4.40;;;2.20;;
41436;SDS011;27178;49.460;10.850;2023-07-31T08:27:51;3.58;;;2.33;;
41436;SDS011;27178;49.460;10.850;2023-07-31T08:30:20;4.63;;;2.05;;
41436;SDS011;27178;49.460;10.850;2023-07-31T08:32:48;2.85;;;1.80;;
41436;SDS011;27178;49.460;10.850;2023-07-31T08:35:18;4.88;;;1.58;;
41436;SDS011;27178;49.460;10.850;2023-07-31T08:37:46;4.25;;;2.10;;
41436;SDS011;27178;49.460;10.850;2023-07-31T08:40:14;3.33;;;2.03;;
41436;SDS011;27178;49.460;10.850;2023-07-31T08:42:43;2.97;;;1.83;;
41436;SDS011;27178;49.460;10.850;2023-07-31T08:45:13;2.45;;;1.70;;
41436;SDS011;27178;49.460;10.850;2023-07-31T08:47:44;2.83;;;2.15;;
41436;SDS011;27178;49.460;10.850;2023-07-31T08:50:14;3.58;;;1.90;;
41436;SDS011;27178;49.460;10.850;2023-07-31T08:52:45;3.55;;;1.88;;
41436;SDS011;27178;49.460;10.850;2023-07-31T08:55:14;2.83;;;1.77;;
41436;SDS011;27178;49.460;10.850;2023-07-31T08:57:42;2.80;;;1.95;;
41436;SDS011;27178;49.460;10.850;2023-07-31T09:00:11;2.20;;;1.70;;
41436;SDS011;27178;49.460;10.850;2023-07-31T09:02:41;3.47;;;1.90;;
41436;SDS011;27178;49.460;10.850;2023-07-31T09:05:13;3.28;;;2.25;;
41436;SDS011;27178;49.460;10.850;2023-07-31T09:07:42;3.47;;;2.20;;
41436;SDS011;27178;49.460;10.850;2023-07-31T09:10:14;3.33;;;2.45;;
41436;SDS011;27178;49.460;10.850;2023-07-31T09:12:43;3.42;;;2.42;;
41436;SDS011;27178;49.460;10.850;2023-07-31T09:15:13;2.72;;;1.95;;
41436;SDS011;27178;49.460;10.850;2023-07-31T09:18:01;2.47;;;2.00;;
41436;SDS011;27178;49.460;10.850;2023-07-31T09:20:31;2.90;;;2.05;;
41436;SDS011;27178;49.460;10.850;2023-07-31T09:23:07;3.80;;;2.00;;
41436;SDS011;27178;49.460;10.850;2023-07-31T09:25:39;2.35;;;1.90;;
41436;SDS011;27178;49.460;10.850;2023-07-31T09:28:11;2.38;;;1.95;;
41436;SDS011;27178;49.460;10.850;2023-07-31T09:30:44;3.45;;;1.85;;
41436;SDS011;27178;49.460;10.850;2023-07-31T09:33:14;4.25;;;2.08;;
41436;SDS011;27178;49.460;10.850;2023-07-31T09:35:42;5.75;;;2.10;;
41436;SDS011;27178;49.460;10.850;2023-07-31T09:38:11;3.35;;;1.90;;
41436;SDS011;27178;49.460;10.850;2023-07-31T09:40:42;4.05;;;1.88;;
41436;SDS011;27178;49.460;10.850;2023-07-31T09:43:12;3.05;;;2.08;;
41436;SDS011;27178;49.460;10.850;2023-07-31T09:45:41;2.78;;;2.17;;
41436;SDS011;27178;49.460;10.850;2023-07-31T09:48:12;3.47;;;2.20;;
41436;SDS011;27178;49.460;10.850;2023-07-31T09:50:42;2.33;;;2.00;;
41436;SDS011;27178;49.460;10.850;2023-07-31T09:53:11;2.20;;;1.88;;
41436;SDS011;27178;49.460;10.850;2023-07-31T09:55:41;3.72;;;2.05;;
41436;SDS011;27178;49.460;10.850;2023-07-31T09:58:10;2.20;;;1.67;;
41436;SDS011;27178;49.460;10.850;2023-07-31T10:00:40;2.33;;;2.03;;
41436;SDS011;27178;49.460;10.850;2023-07-31T10:03:10;2.38;;;1.80;;
41436;SDS011;27178;49.460;10.850;2023-07-31T10:05:39;2.10;;;1.92;;
41436;SDS011;27178;49.460;10.850;2023-07-31T10:08:12;3.47;;;2.40;;
41436;SDS011;27178;49.460;10.850;2023-07-31T10:10:44;2.15;;;1.75;;
41436;SDS011;27178;49.460;10.850;2023-07-31T10:13:13;3.00;;;1.83;;
41436;SDS011;27178;49.460;10.850;2023-07-31T10:15:41;2.30;;;1.92;;
41436;SDS011;27178;49.460;10.850;2023-07-31T10:18:11;4.35;;;2.05;;
41436;SDS011;27178;49.460;10.850;2023-07-31T10:20:39;4.28;;;2.47;;
41436;SDS011;27178;49.460;10.850;2023-07-31T10:23:09;2.88;;;2.20;;
41436;SDS011;27178;49.460;10.850;2023-07-31T10:25:38;2.65;;;1.80;;
41436;SDS011;27178;49.460;10.850;2023-07-31T10:28:09;3.78;;;2.30;;
41436;SDS011;27178;49.460;10.850;2023-07-31T10:30:40;2.42;;;1.80;;
41436;SDS011;27178;49.460;10.850;2023-07-31T10:33:09;1.80;;;1.63;;
41436;SDS011;27178;49.460;10.850;2023-07-31T10:35:37;2.90;;;2.08;;
41436;SDS011;27178;49.460;10.850;2023-07-31T10:38:09;4.65;;;2.00;;
41436;SDS011;27178;49.460;10.850;2023-07-31T10:40:39;3.00;;;2.17;;
41436;SDS011;27178;49.460;10.850;2023-07-31T10:43:09;2.50;;;1.85;;
41436;SDS011;27178;49.460;10.850;2023-07-31T10:45:52;2.75;;;2.15;;
41436;SDS011;27178;49.460;10.850;2023-07-31T10:48:21;2.92;;;1.92;;
41436;SDS011;27178;49.460;10.850;2023-07-31T10:50:50;4.22;;;2.20;;
41436;SDS011;27178;49.460;10.850;2023-07-31T10:53:22;2.95;;;2.00;;
41436;SDS011;27178;49.460;10.850;2023-07-31T10:55:52;2.72;;;2.22;;
41436;SDS011;27178;49.460;10.850;2023-07-31T10:58:44;3.22;;;2.08;;
41436;SDS011;27178;49.460;10.850;2023-07-31T11:01:13;2.03;;;1.83;;
41436;SDS011;27178;49.460;10.850;2023-07-31T11:03:42;5.18;;;3.28;;
41436;SDS011;27178;49.460;10.850;2023-07-31T11:06:12;3.80;;;2.40;;
41436;SDS011;27178;49.460;10.850;2023-07-31T11:08:44;2.42;;;2.03;;
41436;SDS011;27178;49.460;10.850;2023-07-31T11:11:14;4.30;;;2.50;;
41436;SDS011;27178;49.460;10.850;2023-07-31T11:13:45;2.42;;;1.80;;
41436;SDS011;27178;49.460;10.850;2023-07-31T11:16:16;4.28;;;2.30;;
41436;SDS011;27178;49.460;10.850;2023-07-31T11:18:46;3.10;;;2.38;;
41436;SDS011;27178;49.460;10.850;2023-07-31T11:21:16;2.85;;;2.10;;
41436;SDS011;27178;49.460;10.850;2023-07-31T11:23:46;2.60;;;2.10;;
41436;SDS011;27178;49.460;10.850;2023-07-31T11:26:14;3.95;;;2.53;;
41436;SDS011;27178;49.460;10.850;2023-07-31T11:28:47;3.90;;;2.10;;
41436;SDS011;27178;49.460;10.850;2023-07-31T11:31:17;2.30;;;2.10;;
41436;SDS011;27178;49.460;10.850;2023-07-31T11:33:45;3.47;;;1.88;;
41436;SDS011;27178;49.460;10.850;2023-07-31T11:36:17;2.75;;;2.15;;
41436;SDS011;27178;49.460;10.850;2023-07-31T11:38:46;3.45;;;2.10;;
41436;SDS011;27178;49.460;10.850;2023-07-31T11:41:15;2.15;;;1.92;;
41436;SDS011;27178;49.460;10.850;2023-07-31T11:43:44;3.22;;;2.30;;
41436;SDS011;27178;49.460;10.850;2023-07-31T11:46:14;3.25;;;2.25;;
41436;SDS011;27178;49.460;10.850;2023-07-31T11:48:44;3.45;;;2.42;;
41436;SDS011;27178;49.460;10.850;2023-07-31T11:51:12;2.13;;;1.90;;
41436;SDS011;27178;49.460;10.850;2023-07-31T11:53:43;2.80;;;2.03;;
41436;SDS011;27178;49.460;10.850;2023-07-31T11:56:13;2.13;;;1.92;;
41436;SDS011;27178;49.460;10.850;2023-07-31T11:58:44;4.40;;;2.58;;
41436;SDS011;27178;49.460;10.850;2023-07-31T12:01:17;2.95;;;2.40;;
41436;SDS011;27178;49.460;10.850;2023-07-31T12:03:47;2.10;;;1.90;;
41436;SDS011;27178;49.460;10.850;2023-07-31T12:06:16;3.00;;;1.90;;
41436;SDS011;27178;49.460;10.850;2023-07-31T12:08:47;2.45;;;2.05;;
41436;SDS011;27178;49.460;10.850;2023-07-31T12:11:15;2.53;;;1.92;;
41436;SDS011;27178;49.460;10.850;2023-07-31T12:13:44;3.10;;;2.53;;
41436;SDS011;27178;49.460;10.850;2023-07-31T12:16:13;3.03;;;2.50;;
41436;SDS011;27178;49.460;10.850;2023-07-31T12:18:42;3.95;;;2.65;;
41436;SDS011;27178;49.460;10.850;2023-07-31T12:21:10;2.92;;;2.20;;
41436;SDS011;27178;49.460;10.850;2023-07-31T12:23:40;2.80;;;2.20;;
41436;SDS011;27178;49.460;10.850;2023-07-31T12:26:12;4.65;;;2.40;;
41436;SDS011;27178;49.460;10.850;2023-07-31T12:28:42;3.30;;;2.70;;
41436;SDS011;27178;49.460;10.850;2023-07-31T12:31:12;2.65;;;2.30;;
41436;SDS011;27178;49.460;10.850;2023-07-31T12:33:43;3.83;;;2.10;;
41436;SDS011;27178;49.460;10.850;2023-07-31T12:36:13;6.13;;;2.10;;
41436;SDS011;27178;49.460;10.850;2023-07-31T12:38:43;2.45;;;2.20;;
41436;SDS011;27178;49.460;10.850;2023-07-31T12:41:13;2.85;;;2.08;;
41436;SDS011;27178;49.460;10.850;2023-07-31T12:43:42;4.80;;;2.53;;
41436;SDS011;27178;49.460;10.850;2023-07-31T12:46:11;4.07;;;2.47;;
41436;SDS011;27178;49.460;10.850;2023-07-31T12:48:42;4.22;;;2.33;;
41436;SDS011;27178;49.460;10.850;2023-07-31T12:51:10;2.88;;;2.45;;
41436;SDS011;27178;49.460;10.850;2023-07-31T12:53:39;2.55;;;2.22;;
41436;SDS011;27178;49.460;10.850;2023-07-31T12:56:07;2.45;;;1.92;;
41436;SDS011;27178;49.460;10.850;2023-07-31T12:58:36;2.85;;;2.13;;
41436;SDS011;27178;49.460;10.850;2023-07-31T13:01:04;3.40;;;2.10;;
41436;SDS011;27178;49.460;10.850;2023-07-31T13:03:34;3.50;;;2.05;;
41436;SDS011;27178;49.460;10.850;2023-07-31T13:06:03;3.65;;;2.00;;
41436;SDS011;27178;49.460;10.850;2023-07-31T13:08:32;4.57;;;2.03;;
41436;SDS011;27178;49.460;10.850;2023-07-31T13:11:00;4.22;;;2.13;;
41436;SDS011;27178;49.460;10.850;2023-07-31T13:13:29;2.28;;;2.00;;
41436;SDS011;27178;49.460;10.850;2023-07-31T13:15:58;2.60;;;2.05;;
41436;SDS011;27178;49.460;10.850;2023-07-31T13:18:27;3.33;;;2.45;;
41436;SDS011;27178;49.460;10.850;2023-07-31T13:20:57;3.15;;;2.20;;
41436;SDS011;27178;49.460;10.850;2023-07-31T13:23:25;2.30;;;2.05;;
41436;SDS011;27178;49.460;10.850;2023-07-31T13:25:53;3.08;;;2.20;;
41436;SDS011;27178;49.460;10.850;2023-07-31T13:28:21;3.53;;;2.17;;
41436;SDS011;27178;49.460;10.850;2023-07-31T13:30:49;4.35;;;2.72;;
41436;SDS011;27178;49.460;10.850;2023-07-31T13:33:18;4.22;;;2.28;;
41436;SDS011;27178;49.460;10.850;2023-07-31T13:36:04;3.63;;;2.35;;
41436;SDS011;27178;49.460;10.850;2023-07-31T13:38:32;2.65;;;2.33;;
41436;SDS011;27178;49.460;10.850;2023-07-31T13:41:01;2.83;;;2.33;;
41436;SDS011;27178;49.460;10.850;2023-07-31T13:43:29;4.55;;;2.22;;
41436;SDS011;27178;49.460;10.850;2023-07-31T13:45:58;5.78;;;2.47;;
41436;SDS011;27178;49.460;10.850;2023-07-31T13:48:30;2.50;;;2.30;;
41436;SDS011;27178;49.460;10.850;2023-07-31T13:50:58;2.90;;;2.45;;
41436;SDS011;27178;49.460;10.850;2023-07-31T13:53:28;3.22;;;2.30;;
41436;SDS011;27178;49.460;10.850;2023-07-31T13:55:57;3.40;;;2.47;;
41436;SDS011;27178;49.460;10.850;2023-07-31T13:58:25;2.78;;;2.17;;
41436;SDS011;27178;49.460;10.850;2023-07-31T14:00:53;2.55;;;2.25;;
41436;SDS011;27178;49.460;10.850;2023-07-31T14:03:21;3.30;;;2.25;;
41436;SDS011;27178;49.460;10.850;2023-07-31T14:05:51;2.83;;;2.08;;
41436;SDS011;27178;49.460;10.850;2023-07-31T14:08:20;3.80;;;2.45;;
41436;SDS011;27178;49.460;10.850;2023-07-31T14:10:50;3.28;;;2.30;;
41436;SDS011;27178;49.460;10.850;2023-07-31T14:13:18;3.35;;;2.30;;
41436;SDS011;27178;49.460;10.850;2023-07-31T14:15:46;3.38;;;2.45;;
41436;SDS011;27178;49.460;10.850;2023-07-31T14:18:14;3.30;;;2.45;;
41436;SDS011;27178;49.460;10.850;2023-07-31T14:23:30;3.63;;;2.30;;
41436;SDS011;27178;49.460;10.850;2023-07-31T14:25:59;2.38;;;2.03;;
41436;SDS011;27178;49.460;10.850;2023-07-31T14:28:28;3.75;;;2.13;;
41436;SDS011;27178;49.460;10.850;2023-07-31T14:30:56;2.83;;;2.30;;
41436;SDS011;27178;49.460;10.850;2023-07-31T14:33:25;2.33;;;2.08;;
41436;SDS011;27178;49.460;10.850;2023-07-31T14:35:54;2.35;;;2.10;;
41436;SDS011;27178;49.460;10.850;2023-07-31T14:38:22;2.78;;;1.90;;
41436;SDS011;27178;49.460;10.850;2023-07-31T14:40:50;3.33;;;2.20;;
41436;SDS011;27178;49.460;10.850;2023-07-31T14:43:20;3.28;;;2.28;;
41436;SDS011;27178;49.460;10.850;2023-07-31T14:45:49;2.42;;;2.20;;
41436;SDS011;27178;49.460;10.850;2023-07-31T14:48:18;3.80;;;2.20;;
41436;SDS011;27178;49.460;10.850;2023-07-31T14:50:46;3.45;;;2.40;;